To NAV CANADA Home Page Login to a new session Search on AWWS site Disclaimer Vers la page française équivalente Tips FAQ What's new on the site To the Forecasts and Observations / NOTAM section To "File a Flight Plan" website Publications and other links Update of the User's profile FIC Telephone Numbers My Weather Data Folder Route Weather Data Regional Weather Data Local Weather Data To the Forecasts and Observations / NOTAM section
Request Generated 11/13/2018 at 18:14:22 UTC . Weather information available at that time is displayed.

METAR/TAF

OLD CROW/YT    

METAR CYOC 131800Z 03020G29KT 1SM -SN DRSN OVC033 M17/M20 A3008 RMK SN4SC4 SLP219=
METAR CYOC 131700Z 04017G24KT 2SM -SN DRSN OVC025 M17/M20 A3010 RMK SN4SC4 SLP225=
METAR CYOC 131600Z 04014G25KT 2SM -SN DRSN OVC016 M17/M20 A3011 RMK SN4ST4 SLP230=

TAF CYOC 131741Z 1318/1402 04017G27KT 3SM -SN OVC025 TEMPO 1318/1322
1SM -SN BR OVC012
FM132200 05020G30KT 6SM -SN BR OVC040 TEMPO 1322/1402 2SM -SN BR
OVC015
RMK NXT FCST BY 140000Z=
Your time UTC time
Weather data provided by Environment Canada and NAV CANADA